sensor_id;sensor_type;location;lat;lon;timestamp;temperature;humidity
20481;DHT22;10399;50.754;3.366;2022-10-17T00:00:44;17.10;99.90
20481;DHT22;10399;50.754;3.366;2022-10-17T00:03:11;17.00;99.90
20481;DHT22;10399;50.754;3.366;2022-10-17T00:05:43;17.10;99.90
20481;DHT22;10399;50.754;3.366;2022-10-17T00:08:11;17.20;99.90
20481;DHT22;10399;50.754;3.366;2022-10-17T00:10:39;17.20;99.90
20481;DHT22;10399;50.754;3.366;2022-10-17T00:13:07;17.30;99.90
20481;DHT22;10399;50.754;3.366;2022-10-17T00:15:34;17.40;99.90
20481;DHT22;10399;50.754;3.366;2022-10-17T00:18:02;17.40;99.90
20481;DHT22;10399;50.754;3.366;2022-10-17T00:20:29;17.40;99.90
20481;DHT22;10399;50.754;3.366;2022-10-17T00:22:58;17.70;99.90
20481;DHT22;10399;50.754;3.366;2022-10-17T00:25:26;17.80;99.90
20481;DHT22;10399;50.754;3.366;2022-10-17T00:27:53;17.90;99.90
20481;DHT22;10399;50.754;3.366;2022-10-17T00:30:19;17.90;99.90
20481;DHT22;10399;50.754;3.366;2022-10-17T00:32:46;18.00;99.90
20481;DHT22;10399;50.754;3.366;2022-10-17T00:35:13;18.10;99.90
20481;DHT22;10399;50.754;3.366;2022-10-17T00:37:40;18.10;99.90
20481;DHT22;10399;50.754;3.366;2022-10-17T00:40:07;18.20;99.90
20481;DHT22;10399;50.754;3.366;2022-10-17T00:42:35;18.20;99.90
20481;DHT22;10399;50.754;3.366;2022-10-17T00:47:35;18.50;99.90
20481;DHT22;10399;50.754;3.366;2022-10-17T00:50:04;18.50;99.90
20481;DHT22;10399;50.754;3.366;2022-10-17T00:52:32;18.40;99.90
20481;DHT22;10399;50.754;3.366;2022-10-17T00:55:24;18.30;99.90
20481;DHT22;10399;50.754;3.366;2022-10-17T00:57:52;18.20;99.90
20481;DHT22;10399;50.754;3.366;2022-10-17T01:00:20;18.20;99.90
20481;DHT22;10399;50.754;3.366;2022-10-17T01:02:48;18.20;99.90
20481;DHT22;10399;50.754;3.366;2022-10-17T01:05:15;18.20;99.90
20481;DHT22;10399;50.754;3.366;2022-10-17T01:07:45;18.30;99.90
20481;DHT22;10399;50.754;3.366;2022-10-17T01:10:13;18.30;99.90
20481;DHT22;10399;50.754;3.366;2022-10-17T01:15:46;18.30;99.90
20481;DHT22;10399;50.754;3.366;2022-10-17T01:18:27;18.40;99.90
20481;DHT22;10399;50.754;3.366;2022-10-17T01:21:15;18.30;99.90
20481;DHT22;10399;50.754;3.366;2022-10-17T01:29:21;18.30;99.90
20481;DHT22;10399;50.754;3.366;2022-10-17T01:45:24;18.10;99.90
20481;DHT22;10399;50.754;3.366;2022-10-17T01:47:53;18.20;99.90
20481;DHT22;10399;50.754;3.366;2022-10-17T01:50:30;18.20;99.90
20481;DHT22;10399;50.754;3.366;2022-10-17T01:53:05;18.20;99.90
20481;DHT22;10399;50.754;3.366;2022-10-17T01:55:36;18.30;99.90
20481;DHT22;10399;50.754;3.366;2022-10-17T01:58:31;18.30;99.90
20481;DHT22;10399;50.754;3.366;2022-10-17T02:01:02;18.20;99.90
20481;DHT22;10399;50.754;3.366;2022-10-17T02:03:31;18.20;99.90
20481;DHT22;10399;50.754;3.366;2022-10-17T02:06:00;18.30;99.90
20481;DHT22;10399;50.754;3.366;2022-10-17T02:08:28;18.30;99.90
20481;DHT22;10399;50.754;3.366;2022-10-17T02:14:31;18.30;99.90
20481;DHT22;10399;50.754;3.366;2022-10-17T02:28:53;18.50;99.90
20481;DHT22;10399;50.754;3.366;2022-10-17T02:31:28;18.50;99.90
20481;DHT22;10399;50.754;3.366;2022-10-17T02:34:01;18.40;99.90
20481;DHT22;10399;50.754;3.366;2022-10-17T02:36:39;18.60;99.90
20481;DHT22;10399;50.754;3.366;2022-10-17T02:39:08;18.60;99.90
20481;DHT22;10399;50.754;3.366;2022-10-17T02:41:51;18.60;99.90
20481;DHT22;10399;50.754;3.366;2022-10-17T02:44:20;18.60;99.90
20481;DHT22;10399;50.754;3.366;2022-10-17T02:46:58;18.60;99.90
20481;DHT22;10399;50.754;3.366;2022-10-17T02:49:37;18.70;99.90
20481;DHT22;10399;50.754;3.366;2022-10-17T02:54:42;18.70;99.90
20481;DHT22;10399;50.754;3.366;2022-10-17T02:59:43;18.80;99.90
20481;DHT22;10399;50.754;3.366;2022-10-17T03:02:11;18.70;99.90
20481;DHT22;10399;50.754;3.366;2022-10-17T03:04:42;18.70;99.90
20481;DHT22;10399;50.754;3.366;2022-10-17T03:07:09;18.70;99.90
20481;DHT22;10399;50.754;3.366;2022-10-17T03:09:36;18.90;99.90
20481;DHT22;10399;50.754;3.366;2022-10-17T03:12:04;18.70;99.90
20481;DHT22;10399;50.754;3.366;2022-10-17T03:14:31;18.80;99.90
20481;DHT22;10399;50.754;3.366;2022-10-17T03:16:57;18.80;99.90
20481;DHT22;10399;50.754;3.366;2022-10-17T03:19:24;18.70;99.90
20481;DHT22;10399;50.754;3.366;2022-10-17T03:21:51;18.80;99.90
20481;DHT22;10399;50.754;3.366;2022-10-17T03:24:18;18.90;99.90
20481;DHT22;10399;50.754;3.366;2022-10-17T03:26:45;18.70;99.90
20481;DHT22;10399;50.754;3.366;2022-10-17T03:29:13;18.70;99.90
20481;DHT22;10399;50.754;3.366;2022-10-17T03:31:40;18.70;99.90
20481;DHT22;10399;50.754;3.366;2022-10-17T03:34:06;18.90;99.90
20481;DHT22;10399;50.754;3.366;2022-10-17T03:36:33;18.90;99.90
20481;DHT22;10399;50.754;3.366;2022-10-17T03:39:00;19.00;99.90
20481;DHT22;10399;50.754;3.366;2022-10-17T03:41:27;19.00;99.90
20481;DHT22;10399;50.754;3.366;2022-10-17T03:43:54;19.00;99.90
20481;DHT22;10399;50.754;3.366;2022-10-17T03:46:21;19.00;99.90
20481;DHT22;10399;50.754;3.366;2022-10-17T03:48:48;19.00;99.90
20481;DHT22;10399;50.754;3.366;2022-10-17T03:51:15;19.00;99.90
20481;DHT22;10399;50.754;3.366;2022-10-17T03:53:42;19.00;99.90
20481;DHT22;10399;50.754;3.366;2022-10-17T03:56:17;19.00;99.90
20481;DHT22;10399;50.754;3.366;2022-10-17T03:58:45;19.00;99.90
20481;DHT22;10399;50.754;3.366;2022-10-17T04:01:13;19.00;99.90
20481;DHT22;10399;50.754;3.366;2022-10-17T04:03:42;19.00;99.90
20481;DHT22;10399;50.754;3.366;2022-10-17T04:06:11;18.90;99.90
20481;DHT22;10399;50.754;3.366;2022-10-17T04:08:39;18.90;99.90
20481;DHT22;10399;50.754;3.366;2022-10-17T04:11:07;19.00;99.90
20481;DHT22;10399;50.754;3.366;2022-10-17T04:13:34;19.00;99.90
20481;DHT22;10399;50.754;3.366;2022-10-17T04:16:07;19.10;99.90
20481;DHT22;10399;50.754;3.366;2022-10-17T04:18:36;19.00;99.90
20481;DHT22;10399;50.754;3.366;2022-10-17T04:21:04;18.90;99.90
20481;DHT22;10399;50.754;3.366;2022-10-17T04:23:32;18.80;99.90
20481;DHT22;10399;50.754;3.366;2022-10-17T04:26:00;18.80;99.90
20481;DHT22;10399;50.754;3.366;2022-10-17T04:28:27;18.80;99.90
20481;DHT22;10399;50.754;3.366;2022-10-17T04:31:03;18.90;99.90
20481;DHT22;10399;50.754;3.366;2022-10-17T04:33:31;18.80;99.90
20481;DHT22;10399;50.754;3.366;2022-10-17T04:36:04;18.90;99.90
20481;DHT22;10399;50.754;3.366;2022-10-17T04:38:33;19.00;99.90
20481;DHT22;10399;50.754;3.366;2022-10-17T04:41:01;19.10;99.90
20481;DHT22;10399;50.754;3.366;2022-10-17T04:43:33;19.00;99.90
20481;DHT22;10399;50.754;3.366;2022-10-17T04:46:03;19.00;99.90
20481;DHT22;10399;50.754;3.366;2022-10-17T04:48:30;18.90;99.90
20481;DHT22;10399;50.754;3.366;2022-10-17T04:51:17;18.90;99.90
20481;DHT22;10399;50.754;3.366;2022-10-17T04:53:49;19.00;99.90
20481;DHT22;10399;50.754;3.366;2022-10-17T04:56:19;19.00;99.90
20481;DHT22;10399;50.754;3.366;2022-10-17T04:58:47;18.90;99.90
20481;DHT22;10399;50.754;3.366;2022-10-17T05:01:21;19.00;99.90
20481;DHT22;10399;50.754;3.366;2022-10-17T05:03:48;19.00;99.90
20481;DHT22;10399;50.754;3.366;2022-10-17T05:06:25;18.90;99.90
20481;DHT22;10399;50.754;3.366;2022-10-17T05:08:55;18.80;99.90
20481;DHT22;10399;50.754;3.366;2022-10-17T05:11:25;19.00;99.90
20481;DHT22;10399;50.754;3.366;2022-10-17T05:13:57;19.00;99.90
20481;DHT22;10399;50.754;3.366;2022-10-17T05:16:26;19.10;99.90
20481;DHT22;10399;50.754;3.366;2022-10-17T05:18:55;19.00;99.90
20481;DHT22;10399;50.754;3.366;2022-10-17T05:21:24;19.00;99.90
20481;DHT22;10399;50.754;3.366;2022-10-17T05:23:51;19.00;99.90
20481;DHT22;10399;50.754;3.366;2022-10-17T05:26:19;19.00;99.90
20481;DHT22;10399;50.754;3.366;2022-10-17T05:28:47;19.00;99.90
20481;DHT22;10399;50.754;3.366;2022-10-17T05:31:14;19.10;99.90
20481;DHT22;10399;50.754;3.366;2022-10-17T05:33:41;18.80;99.90
20481;DHT22;10399;50.754;3.366;2022-10-17T05:36:08;19.00;99.90
20481;DHT22;10399;50.754;3.366;2022-10-17T05:38:35;18.90;99.90
20481;DHT22;10399;50.754;3.366;2022-10-17T05:41:04;18.90;99.90
20481;DHT22;10399;50.754;3.366;2022-10-17T05:43:32;19.00;99.90
20481;DHT22;10399;50.754;3.366;2022-10-17T05:46:03;18.80;99.90
20481;DHT22;10399;50.754;3.366;2022-10-17T05:48:31;18.80;99.90
20481;DHT22;10399;50.754;3.366;2022-10-17T05:50:59;18.70;99.90
20481;DHT22;10399;50.754;3.366;2022-10-17T05:53:30;18.60;99.90
20481;DHT22;10399;50.754;3.366;2022-10-17T05:55:59;18.30;99.90
20481;DHT22;10399;50.754;3.366;2022-10-17T05:58:26;18.30;99.90
20481;DHT22;10399;50.754;3.366;2022-10-17T06:01:13;18.30;99.90
20481;DHT22;10399;50.754;3.366;2022-10-17T06:03:41;18.00;99.90
20481;DHT22;10399;50.754;3.366;2022-10-17T06:06:11;17.90;99.90
20481;DHT22;10399;50.754;3.366;2022-10-17T06:08:38;17.90;99.90
20481;DHT22;10399;50.754;3.366;2022-10-17T06:11:06;17.80;99.90
20481;DHT22;10399;50.754;3.366;2022-10-17T06:13:37;17.70;99.90
20481;DHT22;10399;50.754;3.366;2022-10-17T06:16:05;17.70;99.90
20481;DHT22;10399;50.754;3.366;2022-10-17T06:18:32;17.80;99.90
20481;DHT22;10399;50.754;3.366;2022-10-17T06:21:07;17.80;99.90
20481;DHT22;10399;50.754;3.366;2022-10-17T06:23:34;17.80;99.90
20481;DHT22;10399;50.754;3.366;2022-10-17T06:26:04;17.70;99.90
20481;DHT22;10399;50.754;3.366;2022-10-17T06:28:31;17.90;99.90
20481;DHT22;10399;50.754;3.366;2022-10-17T06:30:58;18.00;99.90
20481;DHT22;10399;50.754;3.366;2022-10-17T06:33:25;18.10;99.90
20481;DHT22;10399;50.754;3.366;2022-10-17T06:35:53;18.10;99.90
20481;DHT22;10399;50.754;3.366;2022-10-17T06:38:20;18.20;99.90
20481;DHT22;10399;50.754;3.366;2022-10-17T06:40:48;18.10;99.90
20481;DHT22;10399;50.754;3.366;2022-10-17T06:43:15;18.10;99.90
20481;DHT22;10399;50.754;3.366;2022-10-17T06:45:45;18.10;99.90
20481;DHT22;10399;50.754;3.366;2022-10-17T06:48:13;18.00;99.90
20481;DHT22;10399;50.754;3.366;2022-10-17T06:50:40;18.00;99.90
20481;DHT22;10399;50.754;3.366;2022-10-17T06:53:07;17.80;99.90
20481;DHT22;10399;50.754;3.366;2022-10-17T06:55:34;18.00;99.90
20481;DHT22;10399;50.754;3.366;2022-10-17T06:58:01;18.00;99.90
20481;DHT22;10399;50.754;3.366;2022-10-17T07:00:28;17.80;99.90
20481;DHT22;10399;50.754;3.366;2022-10-17T07:02:55;17.90;99.90
20481;DHT22;10399;50.754;3.366;2022-10-17T07:05:22;17.90;99.90
20481;DHT22;10399;50.754;3.366;2022-10-17T07:07:49;17.90;99.90
20481;DHT22;10399;50.754;3.366;2022-10-17T07:10:17;18.00;99.90
20481;DHT22;10399;50.754;3.366;2022-10-17T07:12:44;18.00;99.90
20481;DHT22;10399;50.754;3.366;2022-10-17T07:15:12;17.90;99.90
20481;DHT22;10399;50.754;3.366;2022-10-17T07:17:39;17.80;99.90
20481;DHT22;10399;50.754;3.366;2022-10-17T07:20:06;17.70;99.90
20481;DHT22;10399;50.754;3.366;2022-10-17T07:22:33;17.70;99.90
20481;DHT22;10399;50.754;3.366;2022-10-17T07:25:00;17.70;99.90
20481;DHT22;10399;50.754;3.366;2022-10-17T07:27:28;17.70;99.90
20481;DHT22;10399;50.754;3.366;2022-10-17T07:29:55;17.80;99.90
20481;DHT22;10399;50.754;3.366;2022-10-17T07:32:22;18.00;99.90
20481;DHT22;10399;50.754;3.366;2022-10-17T07:34:49;18.00;99.90
20481;DHT22;10399;50.754;3.366;2022-10-17T07:37:16;18.10;99.90
20481;DHT22;10399;50.754;3.366;2022-10-17T07:39:43;18.10;99.90
20481;DHT22;10399;50.754;3.366;2022-10-17T07:42:10;18.00;99.90
20481;DHT22;10399;50.754;3.366;2022-10-17T07:44:38;18.00;99.90
20481;DHT22;10399;50.754;3.366;2022-10-17T07:47:05;18.00;99.90
20481;DHT22;10399;50.754;3.366;2022-10-17T07:49:32;18.00;99.90
20481;DHT22;10399;50.754;3.366;2022-10-17T07:51:59;18.00;99.90
20481;DHT22;10399;50.754;3.366;2022-10-17T07:54:26;18.00;99.90
20481;DHT22;10399;50.754;3.366;2022-10-17T07:56:53;18.00;99.90
20481;DHT22;10399;50.754;3.366;2022-10-17T07:59:20;18.00;99.90
20481;DHT22;10399;50.754;3.366;2022-10-17T08:01:47;18.00;99.90
20481;DHT22;10399;50.754;3.366;2022-10-17T08:04:14;17.90;99.90
20481;DHT22;10399;50.754;3.366;2022-10-17T08:06:42;18.00;99.90
20481;DHT22;10399;50.754;3.366;2022-10-17T08:09:10;18.00;99.90
20481;DHT22;10399;50.754;3.366;2022-10-17T08:11:37;18.00;99.90
20481;DHT22;10399;50.754;3.366;2022-10-17T08:14:04;18.00;99.90
20481;DHT22;10399;50.754;3.366;2022-10-17T08:16:31;18.00;99.90
20481;DHT22;10399;50.754;3.366;2022-10-17T08:18:57;18.10;99.90
20481;DHT22;10399;50.754;3.366;2022-10-17T08:21:25;18.10;99.90
20481;DHT22;10399;50.754;3.366;2022-10-17T08:23:53;18.00;99.90
20481;DHT22;10399;50.754;3.366;2022-10-17T08:26:20;18.00;99.90
20481;DHT22;10399;50.754;3.366;2022-10-17T08:28:48;18.00;99.90
20481;DHT22;10399;50.754;3.366;2022-10-17T08:31:17;18.00;99.90
20481;DHT22;10399;50.754;3.366;2022-10-17T08:33:45;18.10;99.90
20481;DHT22;10399;50.754;3.366;2022-10-17T08:36:16;18.00;99.90
20481;DHT22;10399;50.754;3.366;2022-10-17T08:38:43;17.90;99.90
20481;DHT22;10399;50.754;3.366;2022-10-17T08:46:50;18.10;99.90
20481;DHT22;10399;50.754;3.366;2022-10-17T08:52:13;18.20;99.90
20481;DHT22;10399;50.754;3.366;2022-10-17T08:54:43;18.20;99.90
20481;DHT22;10399;50.754;3.366;2022-10-17T08:57:13;18.20;99.90
20481;DHT22;10399;50.754;3.366;2022-10-17T08:59:42;18.30;99.90
20481;DHT22;10399;50.754;3.366;2022-10-17T09:05:24;18.10;99.90
20481;DHT22;10399;50.754;3.366;2022-10-17T09:10:56;17.80;99.90
20481;DHT22;10399;50.754;3.366;2022-10-17T09:18:41;18.00;99.90
20481;DHT22;10399;50.754;3.366;2022-10-17T09:21:41;18.10;99.90
20481;DHT22;10399;50.754;3.366;2022-10-17T09:27:07;18.00;99.90
20481;DHT22;10399;50.754;3.366;2022-10-17T09:29:43;17.90;99.90
20481;DHT22;10399;50.754;3.366;2022-10-17T09:32:16;17.80;99.90
20481;DHT22;10399;50.754;3.366;2022-10-17T09:34:45;17.80;99.90
20481;DHT22;10399;50.754;3.366;2022-10-17T09:37:13;18.00;99.90
20481;DHT22;10399;50.754;3.366;2022-10-17T09:39:42;18.00;99.90
20481;DHT22;10399;50.754;3.366;2022-10-17T09:42:14;18.10;99.90
20481;DHT22;10399;50.754;3.366;2022-10-17T09:45:10;18.10;99.90
20481;DHT22;10399;50.754;3.366;2022-10-17T09:47:48;18.10;99.90
20481;DHT22;10399;50.754;3.366;2022-10-17T09:50:21;18.20;99.90
20481;DHT22;10399;50.754;3.366;2022-10-17T09:52:52;18.40;99.90
20481;DHT22;10399;50.754;3.366;2022-10-17T09:55:41;18.50;99.90
20481;DHT22;10399;50.754;3.366;2022-10-17T09:58:09;18.60;99.90
20481;DHT22;10399;50.754;3.366;2022-10-17T10:00:45;18.70;99.90
20481;DHT22;10399;50.754;3.366;2022-10-17T10:03:24;18.70;99.90
20481;DHT22;10399;50.754;3.366;2022-10-17T10:06:04;18.70;99.90
20481;DHT22;10399;50.754;3.366;2022-10-17T10:08:46;18.80;99.90
20481;DHT22;10399;50.754;3.366;2022-10-17T10:11:15;18.80;99.90
20481;DHT22;10399;50.754;3.366;2022-10-17T10:13:45;19.00;99.90
20481;DHT22;10399;50.754;3.366;2022-10-17T10:18:48;18.90;99.90
20481;DHT22;10399;50.754;3.366;2022-10-17T10:21:24;19.10;99.90
20481;DHT22;10399;50.754;3.366;2022-10-17T10:26:44;19.40;99.90
20481;DHT22;10399;50.754;3.366;2022-10-17T10:29:22;19.60;99.90
20481;DHT22;10399;50.754;3.366;2022-10-17T10:31:51;19.70;99.90
20481;DHT22;10399;50.754;3.366;2022-10-17T10:34:25;19.70;99.90
20481;DHT22;10399;50.754;3.366;2022-10-17T10:37:05;19.70;99.90
20481;DHT22;10399;50.754;3.366;2022-10-17T10:39:52;19.60;99.90
20481;DHT22;10399;50.754;3.366;2022-10-17T10:45:01;20.20;99.90
20481;DHT22;10399;50.754;3.366;2022-10-17T10:47:30;20.40;99.90
20481;DHT22;10399;50.754;3.366;2022-10-17T10:52:47;20.80;99.90
20481;DHT22;10399;50.754;3.366;2022-10-17T10:55:26;20.70;99.90
20481;DHT22;10399;50.754;3.366;2022-10-17T10:58:03;20.70;99.90
20481;DHT22;10399;50.754;3.366;2022-10-17T11:00:34;20.40;99.90
20481;DHT22;10399;50.754;3.366;2022-10-17T11:03:08;20.50;99.90
20481;DHT22;10399;50.754;3.366;2022-10-17T11:05:46;20.20;99.90
20481;DHT22;10399;50.754;3.366;2022-10-17T11:11:24;20.40;99.90
20481;DHT22;10399;50.754;3.366;2022-10-17T11:14:03;20.20;99.90
20481;DHT22;10399;50.754;3.366;2022-10-17T11:16:43;20.10;99.90
20481;DHT22;10399;50.754;3.366;2022-10-17T11:19:32;20.10;99.90
20481;DHT22;10399;50.754;3.366;2022-10-17T11:22:30;20.10;99.90
20481;DHT22;10399;50.754;3.366;2022-10-17T11:27:39;20.30;99.90
20481;DHT22;10399;50.754;3.366;2022-10-17T11:30:14;20.10;99.90
20481;DHT22;10399;50.754;3.366;2022-10-17T11:32:48;20.00;99.90
20481;DHT22;10399;50.754;3.366;2022-10-17T11:35:34;20.10;99.90
20481;DHT22;10399;50.754;3.366;2022-10-17T11:40:58;19.90;99.90
20481;DHT22;10399;50.754;3.366;2022-10-17T11:43:36;19.90;99.90
20481;DHT22;10399;50.754;3.366;2022-10-17T11:46:13;19.90;99.90
20481;DHT22;10399;50.754;3.366;2022-10-17T11:51:15;19.70;99.90
20481;DHT22;10399;50.754;3.366;2022-10-17T11:54:13;19.90;99.90
20481;DHT22;10399;50.754;3.366;2022-10-17T12:02:56;19.90;99.90
20481;DHT22;10399;50.754;3.366;2022-10-17T12:10:59;19.60;99.90
20481;DHT22;10399;50.754;3.366;2022-10-17T12:15:57;20.00;99.90
20481;DHT22;10399;50.754;3.366;2022-10-17T12:18:45;20.10;99.90
20481;DHT22;10399;50.754;3.366;2022-10-17T12:21:12;20.10;99.90
20481;DHT22;10399;50.754;3.366;2022-10-17T12:23:39;20.10;99.90
20481;DHT22;10399;50.754;3.366;2022-10-17T12:26:08;20.10;99.90
20481;DHT22;10399;50.754;3.366;2022-10-17T12:31:24;20.10;99.90
20481;DHT22;10399;50.754;3.366;2022-10-17T12:34:01;20.10;99.90
20481;DHT22;10399;50.754;3.366;2022-10-17T13:02:43;20.90;99.90
20481;DHT22;10399;50.754;3.366;2022-10-17T13:05:33;20.80;99.90
20481;DHT22;10399;50.754;3.366;2022-10-17T13:08:04;21.00;99.90
20481;DHT22;10399;50.754;3.366;2022-10-17T13:10:34;21.00;99.90
20481;DHT22;10399;50.754;3.366;2022-10-17T13:15:47;21.20;99.90
20481;DHT22;10399;50.754;3.366;2022-10-17T13:18:24;21.10;99.90
20481;DHT22;10399;50.754;3.366;2022-10-17T13:21:05;21.30;99.90
20481;DHT22;10399;50.754;3.366;2022-10-17T13:23:36;21.10;99.90
20481;DHT22;10399;50.754;3.366;2022-10-17T13:26:11;21.00;99.90
20481;DHT22;10399;50.754;3.366;2022-10-17T13:28:38;20.90;99.90
20481;DHT22;10399;50.754;3.366;2022-10-17T13:31:06;21.20;99.90
20481;DHT22;10399;50.754;3.366;2022-10-17T13:33:39;21.00;99.90
20481;DHT22;10399;50.754;3.366;2022-10-17T13:36:11;21.10;99.90
20481;DHT22;10399;50.754;3.366;2022-10-17T13:38:41;21.30;99.90
20481;DHT22;10399;50.754;3.366;2022-10-17T13:41:13;21.20;99.90
20481;DHT22;10399;50.754;3.366;2022-10-17T13:44:02;21.00;99.90
20481;DHT22;10399;50.754;3.366;2022-10-17T13:46:32;21.10;99.90
20481;DHT22;10399;50.754;3.366;2022-10-17T13:51:45;21.00;99.90
20481;DHT22;10399;50.754;3.366;2022-10-17T13:56:59;20.70;99.90
20481;DHT22;10399;50.754;3.366;2022-10-17T13:59:38;20.70;99.90
20481;DHT22;10399;50.754;3.366;2022-10-17T14:02:14;20.90;99.90
20481;DHT22;10399;50.754;3.366;2022-10-17T14:04:42;20.70;99.90
20481;DHT22;10399;50.754;3.366;2022-10-17T14:10:33;20.40;99.90
20481;DHT22;10399;50.754;3.366;2022-10-17T14:13:02;20.40;99.90
20481;DHT22;10399;50.754;3.366;2022-10-17T14:15:32;20.30;99.90
20481;DHT22;10399;50.754;3.366;2022-10-17T14:18:07;20.50;99.90
20481;DHT22;10399;50.754;3.366;2022-10-17T14:20:35;20.40;99.90
20481;DHT22;10399;50.754;3.366;2022-10-17T14:23:42;20.60;99.90
20481;DHT22;10399;50.754;3.366;2022-10-17T14:28:41;20.50;99.90
20481;DHT22;10399;50.754;3.366;2022-10-17T14:31:15;20.60;99.90
20481;DHT22;10399;50.754;3.366;2022-10-17T14:33:45;20.60;99.90
20481;DHT22;10399;50.754;3.366;2022-10-17T14:36:17;20.60;99.90
20481;DHT22;10399;50.754;3.366;2022-10-17T14:38:48;20.80;99.90
20481;DHT22;10399;50.754;3.366;2022-10-17T14:41:22;20.80;99.90
20481;DHT22;10399;50.754;3.366;2022-10-17T14:46:53;20.90;99.90
20481;DHT22;10399;50.754;3.366;2022-10-17T14:49:26;20.70;99.90
20481;DHT22;10399;50.754;3.366;2022-10-17T14:54:54;20.70;99.90
20481;DHT22;10399;50.754;3.366;2022-10-17T14:59:59;20.50;99.90
20481;DHT22;10399;50.754;3.366;2022-10-17T15:02:28;20.60;99.90
20481;DHT22;10399;50.754;3.366;2022-10-17T15:04:56;20.60;99.90
20481;DHT22;10399;50.754;3.366;2022-10-17T15:07:23;20.70;99.90
20481;DHT22;10399;50.754;3.366;2022-10-17T15:09:51;20.80;99.90
20481;DHT22;10399;50.754;3.366;2022-10-17T15:12:21;20.70;99.90
20481;DHT22;10399;50.754;3.366;2022-10-17T15:14:49;20.60;99.90
20481;DHT22;10399;50.754;3.366;2022-10-17T15:17:29;20.60;99.90
20481;DHT22;10399;50.754;3.366;2022-10-17T15:19:57;20.50;99.90
20481;DHT22;10399;50.754;3.366;2022-10-17T15:22:25;20.30;99.90
20481;DHT22;10399;50.754;3.366;2022-10-17T15:24:52;20.50;99.90
20481;DHT22;10399;50.754;3.366;2022-10-17T15:27:22;20.50;99.90
20481;DHT22;10399;50.754;3.366;2022-10-17T15:29:49;20.50;99.90
20481;DHT22;10399;50.754;3.366;2022-10-17T15:32:17;20.60;99.90
20481;DHT22;10399;50.754;3.366;2022-10-17T15:34:44;20.70;99.90
20481;DHT22;10399;50.754;3.366;2022-10-17T15:37:32;20.60;99.90
20481;DHT22;10399;50.754;3.366;2022-10-17T15:39:59;20.50;99.90
20481;DHT22;10399;50.754;3.366;2022-10-17T15:42:28;20.40;99.90
20481;DHT22;10399;50.754;3.366;2022-10-17T15:44:56;20.40;99.90
20481;DHT22;10399;50.754;3.366;2022-10-17T15:47:27;20.30;99.90
20481;DHT22;10399;50.754;3.366;2022-10-17T15:49:55;20.50;99.90
20481;DHT22;10399;50.754;3.366;2022-10-17T15:52:23;20.50;99.90
20481;DHT22;10399;50.754;3.366;2022-10-17T15:54:51;20.40;99.90
20481;DHT22;10399;50.754;3.366;2022-10-17T15:57:27;20.40;99.90
20481;DHT22;10399;50.754;3.366;2022-10-17T15:59:57;20.50;99.90
20481;DHT22;10399;50.754;3.366;2022-10-17T16:02:25;20.50;99.90
20481;DHT22;10399;50.754;3.366;2022-10-17T16:04:53;20.50;99.90
20481;DHT22;10399;50.754;3.366;2022-10-17T16:07:19;20.50;99.90
20481;DHT22;10399;50.754;3.366;2022-10-17T16:09:47;20.50;99.90
20481;DHT22;10399;50.754;3.366;2022-10-17T16:12:26;20.60;99.90
20481;DHT22;10399;50.754;3.366;2022-10-17T16:14:53;20.40;99.90
20481;DHT22;10399;50.754;3.366;2022-10-17T16:17:21;20.40;99.90
20481;DHT22;10399;50.754;3.366;2022-10-17T16:19:48;20.40;99.90
20481;DHT22;10399;50.754;3.366;2022-10-17T16:22:31;20.30;99.90
20481;DHT22;10399;50.754;3.366;2022-10-17T16:24:59;20.30;99.90
20481;DHT22;10399;50.754;3.366;2022-10-17T16:27:34;20.20;99.90
20481;DHT22;10399;50.754;3.366;2022-10-17T16:30:05;20.20;99.90
20481;DHT22;10399;50.754;3.366;2022-10-17T16:32:33;20.20;99.90
20481;DHT22;10399;50.754;3.366;2022-10-17T16:35:00;20.10;99.90
20481;DHT22;10399;50.754;3.366;2022-10-17T16:37:27;19.90;99.90
20481;DHT22;10399;50.754;3.366;2022-10-17T16:39:53;20.00;99.90
20481;DHT22;10399;50.754;3.366;2022-10-17T16:42:20;20.00;99.90
20481;DHT22;10399;50.754;3.366;2022-10-17T16:44:48;19.90;99.90
20481;DHT22;10399;50.754;3.366;2022-10-17T16:47:16;19.70;99.90
20481;DHT22;10399;50.754;3.366;2022-10-17T16:49:44;19.60;99.90
20481;DHT22;10399;50.754;3.366;2022-10-17T16:52:11;19.50;99.90
20481;DHT22;10399;50.754;3.366;2022-10-17T16:54:38;19.40;99.90
20481;DHT22;10399;50.754;3.366;2022-10-17T16:57:06;19.50;99.90
20481;DHT22;10399;50.754;3.366;2022-10-17T16:59:33;19.40;99.90
20481;DHT22;10399;50.754;3.366;2022-10-17T17:02:00;19.40;99.90
20481;DHT22;10399;50.754;3.366;2022-10-17T17:04:28;19.40;99.90
20481;DHT22;10399;50.754;3.366;2022-10-17T17:06:55;19.40;99.90
20481;DHT22;10399;50.754;3.366;2022-10-17T17:09:22;19.40;99.90
20481;DHT22;10399;50.754;3.366;2022-10-17T17:11:49;19.40;99.90
20481;DHT22;10399;50.754;3.366;2022-10-17T17:14:16;19.30;99.90
20481;DHT22;10399;50.754;3.366;2022-10-17T17:16:43;19.40;99.90
20481;DHT22;10399;50.754;3.366;2022-10-17T17:19:12;19.30;99.90
20481;DHT22;10399;50.754;3.366;2022-10-17T17:21:40;19.30;99.90
20481;DHT22;10399;50.754;3.366;2022-10-17T17:24:13;19.20;99.90
20481;DHT22;10399;50.754;3.366;2022-10-17T17:26:40;19.20;99.90
20481;DHT22;10399;50.754;3.366;2022-10-17T17:29:08;19.10;99.90
20481;DHT22;10399;50.754;3.366;2022-10-17T17:31:36;19.10;99.90
20481;DHT22;10399;50.754;3.366;2022-10-17T17:34:05;19.00;99.90
20481;DHT22;10399;50.754;3.366;2022-10-17T17:36:34;19.00;99.90
20481;DHT22;10399;50.754;3.366;2022-10-17T17:39:07;18.90;99.90
20481;DHT22;10399;50.754;3.366;2022-10-17T17:41:34;18.90;99.90
20481;DHT22;10399;50.754;3.366;2022-10-17T17:44:02;18.90;99.90
20481;DHT22;10399;50.754;3.366;2022-10-17T17:46:30;18.90;99.90
20481;DHT22;10399;50.754;3.366;2022-10-17T17:48:57;19.00;99.90
20481;DHT22;10399;50.754;3.366;2022-10-17T17:51:25;19.10;99.90
20481;DHT22;10399;50.754;3.366;2022-10-17T17:53:55;19.00;99.90
20481;DHT22;10399;50.754;3.366;2022-10-17T17:56:27;19.00;99.90
20481;DHT22;10399;50.754;3.366;2022-10-17T17:59:00;19.00;99.90
20481;DHT22;10399;50.754;3.366;2022-10-17T18:01:29;19.00;99.90
20481;DHT22;10399;50.754;3.366;2022-10-17T18:03:57;19.00;99.90
20481;DHT22;10399;50.754;3.366;2022-10-17T18:06:26;19.00;99.90
20481;DHT22;10399;50.754;3.366;2022-10-17T18:08:56;19.10;99.90
20481;DHT22;10399;50.754;3.366;2022-10-17T18:11:25;19.10;99.90
20481;DHT22;10399;50.754;3.366;2022-10-17T18:13:58;19.20;99.90
20481;DHT22;10399;50.754;3.366;2022-10-17T18:16:27;19.20;99.90
20481;DHT22;10399;50.754;3.366;2022-10-17T18:18:54;19.10;99.90
20481;DHT22;10399;50.754;3.366;2022-10-17T18:21:24;19.10;99.90
20481;DHT22;10399;50.754;3.366;2022-10-17T18:23:51;19.10;99.90
20481;DHT22;10399;50.754;3.366;2022-10-17T18:26:19;19.10;99.90